Time;durP1;ratioP1;P1;durP2;ratioP2;P2;SDS_P1;SDS_P2;PMS_P1;PMS_P2;Temp;Humidity;BMP_temperature;BMP_pressure;BME280_temperature;BME280_humidity;BME280_pressure;Samples;Min_cycle;Max_cycle;Signal;HPM_P1;HPM_P2
2022/12/10 03:17:45;;;;;;;14.10;9.90;;;;;;;-0.11;100.00;98774.70;100118;1319;557777;-64
2022/12/10 03:20:13;;;;;;;14.10;9.00;;;;;;;0.03;100.00;98764.00;101021;1322;70628;-65
2022/12/10 03:22:40;;;;;;;16.10;10.00;;;;;;;0.06;100.00;98757.23;101279;1299;138700;-65
2022/12/10 03:25:08;;;;;;;13.80;9.50;;;;;;;0.09;100.00;98750.45;101307;1313;25578;-65
2022/12/10 03:27:35;;;;;;;12.70;8.10;;;;;;;0.09;100.00;98752.34;101426;1307;25309;-65
2022/12/10 03:30:01;;;;;;;11.60;8.50;;;;;;;0.09;100.00;98748.60;101300;1297;137443;-65
2022/12/10 03:32:28;;;;;;;13.20;8.90;;;;;;;0.09;100.00;98751.77;101249;1303;25930;-65
2022/12/10 03:34:56;;;;;;;12.00;8.50;;;;;;;0.09;100.00;98753.41;101242;1300;138418;-65
2022/12/10 03:37:23;;;;;;;14.40;9.60;;;;;;;0.10;100.00;98749.05;105383;1322;22182;-66
2022/12/10 03:39:50;;;;;;;13.80;9.20;;;;;;;0.11;100.00;98737.75;106441;1309;22231;-66
2022/12/10 03:42:17;;;;;;;13.00;8.80;;;;;;;0.13;100.00;98738.82;106124;1308;138177;-66
2022/12/10 03:44:43;;;;;;;10.20;6.70;;;;;;;0.13;100.00;98736.80;106310;1308;22227;-65
2022/12/10 03:47:12;;;;;;;16.90;7.70;;;;;;;0.13;100.00;98736.20;106168;1308;138652;-66
2022/12/10 03:49:39;;;;;;;12.00;8.50;;;;;;;0.13;100.00;98730.33;106257;1308;22893;-66
2022/12/10 03:52:05;;;;;;;11.60;8.90;;;;;;;0.12;100.00;98728.27;106088;1308;139101;-66
2022/12/10 03:54:32;;;;;;;12.40;8.40;;;;;;;0.13;100.00;98727.91;106437;1305;22120;-66
2022/12/10 03:56:59;;;;;;;12.10;8.80;;;;;;;0.14;100.00;98729.02;106400;1308;22285;-65
2022/12/10 03:59:25;;;;;;;9.60;6.20;;;;;;;0.15;100.00;98717.58;106379;1299;138813;-65
2022/12/10 04:01:52;;;;;;;12.00;8.30;;;;;;;0.15;100.00;98709.38;106421;1306;22146;-65
2022/12/10 04:04:19;;;;;;;11.20;8.10;;;;;;;0.14;100.00;98715.58;106266;1300;137878;-65
2022/12/10 04:06:46;;;;;;;10.90;7.50;;;;;;;0.14;100.00;98715.21;106303;1308;22218;-67
2022/12/10 13:34:00;;;;;;;31.90;22.80;;;;;;;2.54;100.00;98308.20;99864;1317;557517;-57
2022/12/10 14:09:12;;;;;;;29.00;17.50;;;;;;;2.87;100.00;98316.15;99562;1327;558862;-57
2022/12/10 14:11:48;;;;;;;24.40;16.40;;;;;;;2.93;100.00;98314.60;105723;1312;124503;-57
2022/12/10 14:14:35;;;;;;;27.80;17.40;;;;;;;2.94;100.00;98317.75;105801;1297;138362;-57
2022/12/10 14:17:09;;;;;;;21.00;14.60;;;;;;;2.93;100.00;98314.22;105962;1313;22177;-57
2022/12/10 14:19:36;;;;;;;27.10;15.90;;;;;;;2.91;100.00;98312.67;106548;1304;22167;-57
2022/12/10 14:22:06;;;;;;;;;;;;;;;2.91;100.00;98311.44;106361;1307;138765;-57
2022/12/10 14:24:37;;;;;;;23.20;14.00;;;;;;;2.91;100.00;98310.23;106442;1306;22163;-59
2022/12/10 14:27:15;;;;;;;24.70;15.00;;;;;;;2.89;100.00;98312.84;106404;1309;137615;-60
2022/12/10 14:29:46;;;;;;;21.30;13.30;;;;;;;2.88;100.00;98316.77;106539;1305;22131;-59
2022/12/10 14:32:20;;;;;;;19.70;13.30;;;;;;;2.87;100.00;98312.40;106414;1306;138115;-59
2022/12/10 14:34:53;;;;;;;69.10;41.20;;;;;;;2.89;100.00;98313.65;106496;1298;22277;-60
2022/12/10 14:37:24;;;;;;;51.60;32.40;;;;;;;2.89;100.00;98315.91;106452;1294;22290;-59
2022/12/10 14:39:50;;;;;;;34.60;22.40;;;;;;;2.86;100.00;98310.48;105994;1302;138778;-59
2022/12/10 14:42:17;;;;;;;29.60;21.30;;;;;;;2.90;100.00;98310.88;106523;1305;22331;-59
2022/12/10 14:44:44;;;;;;;33.70;23.20;;;;;;;2.92;100.00;98309.89;106424;1298;138993;-59
2022/12/10 14:47:16;;;;;;;35.50;23.60;;;;;;;2.93;100.00;98314.80;106526;1295;22327;-59
2022/12/10 14:49:47;;;;;;;27.80;18.50;;;;;;;2.93;100.00;98315.67;106527;1301;22157;-59
2022/12/10 14:52:17;;;;;;;30.90;18.10;;;;;;;2.94;100.00;98321.83;106437;1281;139155;-59
2022/12/10 14:54:44;;;;;;;26.60;18.10;;;;;;;2.95;100.00;98326.48;106522;1291;22131;-58
2022/12/10 15:52:31;;;;;;;47.20;32.30;;;;;;;2.68;100.00;98325.31;100221;1319;557470;-53
2022/12/10 15:54:58;;;;;;;41.40;27.80;;;;;;;2.65;100.00;98329.51;101403;1307;94043;-53
2022/12/10 15:57:27;;;;;;;46.00;29.60;;;;;;;2.60;100.00;98333.98;105394;1307;22917;-53
2022/12/10 15:59:56;;;;;;;47.50;30.20;;;;;;;2.55;100.00;98329.17;106851;1299;22158;-53
2022/12/10 16:02:37;;;;;;;39.60;26.90;;;;;;;2.50;100.00;98330.58;106889;1285;22120;-54
2022/12/10 16:05:12;;;;;;;44.90;26.90;;;;;;;2.44;100.00;98333.54;102672;1309;22499;-53
2022/12/10 16:07:39;;;;;;;45.50;27.80;;;;;;;2.42;100.00;98331.48;102751;1283;27950;-53
2022/12/10 16:10:07;;;;;;;51.20;30.50;;;;;;;2.38;100.00;98326.66;106872;1301;22895;-53
2022/12/10 16:12:34;;;;;;;49.90;30.30;;;;;;;2.36;100.00;98325.25;106904;1289;22140;-54
2022/12/10 16:15:08;;;;;;;56.70;33.10;;;;;;;2.34;100.00;98326.29;106873;1301;22268;-54
2022/12/10 16:17:50;;;;;;;50.30;29.70;;;;;;;2.32;100.00;98322.70;106863;1299;22222;-53
2022/12/10 16:20:34;;;;;;;46.40;27.60;;;;;;;2.31;100.00;98327.05;106862;1302;22146;-53
2022/12/10 16:23:02;;;;;;;48.70;30.40;;;;;;;2.27;100.00;98330.88;107027;1283;22231;-53
2022/12/10 16:25:30;;;;;;;48.20;30.30;;;;;;;2.25;100.00;98332.32;106895;1287;22367;-53
2022/12/10 16:27:58;;;;;;;63.50;35.00;;;;;;;2.24;100.00;98321.24;106923;1284;22139;-53
2022/12/10 16:30:36;;;;;;;54.40;31.40;;;;;;;2.24;100.00;98322.29;106882;1302;22200;-53
2022/12/10 16:33:11;;;;;;;50.50;28.90;;;;;;;2.22;100.00;98321.35;106876;1295;23062;-53
2022/12/10 16:35:38;;;;;;;52.50;29.30;;;;;;;2.24;100.00;98315.64;106884;1302;22226;-53
2022/12/10 16:38:06;;;;;;;55.20;28.80;;;;;;;2.27;100.00;98306.81;106894;1300;22232;-53
2022/12/10 16:40:36;;;;;;;53.20;28.40;;;;;;;2.32;100.00;98307.75;106873;1302;22226;-53
2022/12/10 16:43:03;;;;;;;43.60;26.50;;;;;;;2.35;100.00;98304.17;106792;1276;22341;-53
2022/12/10 16:45:36;;;;;;;42.80;26.60;;;;;;;2.39;100.00;98305.60;106849;1295;22066;-53
2022/12/10 16:48:03;;;;;;;45.00;25.80;;;;;;;2.39;100.00;98294.85;106746;1288;22879;-53
2022/12/10 16:50:30;;;;;;;38.90;23.80;;;;;;;2.40;100.00;98293.71;106748;1284;22297;-53
2022/12/10 16:52:57;;;;;;;;;;;;;;;2.42;100.00;98308.70;106800;1295;22345;-53
2022/12/10 16:55:25;;;;;;;32.90;18.50;;;;;;;2.43;100.00;98327.00;106824;1296;22164;-53
2022/12/10 16:57:52;;;;;;;31.70;20.80;;;;;;;2.46;100.00;98340.77;106735;1297;22921;-53
2022/12/10 17:00:22;;;;;;;31.80;19.50;;;;;;;2.50;100.00;98333.59;106696;1280;23001;-53
2022/12/10 17:02:49;;;;;;;30.50;20.30;;;;;;;2.54;100.00;98328.08;106562;1280;23147;-54
2022/12/10 17:05:22;;;;;;;34.80;20.70;;;;;;;2.57;100.00;98331.98;106824;1302;22145;-54
2022/12/10 17:07:49;;;;;;;39.30;22.80;;;;;;;2.60;100.00;98338.44;106832;1302;23407;-54
2022/12/10 17:10:16;;;;;;;31.80;18.10;;;;;;;2.63;100.00;98342.91;106850;1297;22220;-54
2022/12/10 17:12:42;;;;;;;;;;;;;;;2.66;100.00;98344.27;106814;1294;22436;-54
2022/12/10 17:15:11;;;;;;;35.40;18.90;;;;;;;2.68;100.00;98342.27;106819;1302;22213;-53
2022/12/10 17:17:43;;;;;;;35.60;19.30;;;;;;;2.70;100.00;98340.22;106828;1295;22166;-53
2022/12/10 17:20:17;;;;;;;36.40;18.90;;;;;;;2.72;100.00;98338.66;106907;1294;22248;-54
2022/12/10 17:22:44;;;;;;;35.60;19.60;;;;;;;2.74;100.00;98338.31;106869;1287;23498;-53
2022/12/10 17:25:11;;;;;;;35.70;21.10;;;;;;;2.75;100.00;98344.83;106783;1302;22118;-53
2022/12/10 17:27:38;;;;;;;38.80;21.80;;;;;;;2.77;100.00;98351.77;102603;1284;22503;-53
2022/12/10 17:30:06;;;;;;;37.20;21.00;;;;;;;2.79;100.00;98353.31;102701;1294;24324;-53
2022/12/10 17:32:33;;;;;;;41.80;22.40;;;;;;;2.79;100.00;98359.52;106853;1303;22859;-53
2022/12/10 17:35:00;;;;;;;;;;;;;;;2.80;100.00;98367.98;106826;1288;24249;-53
2022/12/10 17:37:28;;;;;;;42.80;23.20;;;;;;;2.81;100.00;98367.73;106848;1302;22133;-53
2022/12/10 17:39:55;;;;;;;37.50;23.50;;;;;;;2.81;100.00;98365.20;106728;1285;22119;-54
2022/12/10 17:42:23;;;;;;;40.00;23.00;;;;;;;2.80;100.00;98374.43;106763;1302;22191;-54
2022/12/10 17:44:49;;;;;;;;;;;;;;;2.79;100.00;98381.40;106783;1304;22474;-53
2022/12/10 17:47:21;;;;;;;36.90;23.10;;;;;;;2.78;100.00;98372.98;106841;1294;23149;-54
2022/12/10 17:49:48;;;;;;;44.70;27.40;;;;;;;2.77;100.00;98370.48;106820;1302;22109;-53
2022/12/10 17:52:16;;;;;;;47.90;26.20;;;;;;;2.77;100.00;98370.85;106851;1302;22318;-53
2022/12/10 17:54:43;;;;;;;47.70;27.50;;;;;;;2.77;100.00;98366.71;106789;1292;22114;-53
2022/12/10 17:57:21;;;;;;;38.20;24.90;;;;;;;2.77;100.00;98367.20;103355;1294;22484;-52
2022/12/10 17:59:48;;;;;;;41.40;25.70;;;;;;;2.78;100.00;98366.37;106783;1299;22888;-52
2022/12/10 18:02:15;;;;;;;;;;;;;;;2.78;100.00;98370.58;106851;1292;22430;-53
2022/12/10 18:04:42;;;;;;;38.30;22.00;;;;;;;2.79;100.00;98373.59;106793;1301;22433;-52
2022/12/10 18:07:12;;;;;;;36.40;23.40;;;;;;;2.79;100.00;98382.36;106821;1300;23098;-53
2022/12/10 18:09:39;;;;;;;224.30;129.90;;;;;;;2.79;100.00;98385.27;106798;1301;22324;-53
2022/12/10 18:12:07;;;;;;;102.30;50.10;;;;;;;2.79;100.00;98385.75;106690;1286;22251;-54
2022/12/10 18:14:34;;;;;;;55.90;31.90;;;;;;;2.79;100.00;98380.16;106788;1303;22143;-54
2022/12/10 18:17:01;;;;;;;42.00;27.10;;;;;;;2.80;100.00;98378.78;106755;1299;22130;-54
2022/12/10 18:19:28;;;;;;;48.00;26.50;;;;;;;2.80;100.00;98381.36;106773;1296;22228;-54
2022/12/10 18:21:54;;;;;;;;;;;;;;;2.79;100.00;98379.09;106853;1308;22395;-54
2022/12/10 18:24:21;;;;;;;44.20;26.60;;;;;;;2.78;100.00;98377.00;106835;1307;22158;-53
2022/12/10 18:26:49;;;;;;;46.80;26.30;;;;;;;2.76;100.00;98375.58;106805;1295;22298;-54
2022/12/10 18:29:16;;;;;;;54.40;29.30;;;;;;;2.77;100.00;98380.52;104557;1288;22616;-54
2022/12/10 18:31:43;;;;;;;51.60;30.10;;;;;;;2.76;100.00;98378.52;102662;1294;22739;-54
2022/12/10 18:34:11;;;;;;;56.50;33.00;;;;;;;2.75;100.00;98372.33;102661;1304;25213;-54
2022/12/10 18:36:40;;;;;;;55.10;32.60;;;;;;;2.74;100.00;98365.53;102652;1294;26611;-54
2022/12/10 18:39:19;;;;;;;51.80;32.10;;;;;;;2.73;100.00;98365.52;102700;1293;22889;-54
2022/12/10 18:41:47;;;;;;;54.20;31.70;;;;;;;2.70;100.00;98367.81;106832;1292;22239;-55
2022/12/10 18:44:16;;;;;;;55.80;32.20;;;;;;;2.68;100.00;98368.21;106788;1293;22138;-54
2022/12/10 18:46:43;;;;;;;55.80;33.60;;;;;;;2.67;100.00;98364.73;106763;1284;22192;-54
2022/12/10 18:49:11;;;;;;;55.40;32.00;;;;;;;2.65;100.00;98371.58;106831;1293;22130;-54
2022/12/10 18:51:38;;;;;;;90.20;46.20;;;;;;;2.63;100.00;98367.64;106825;1300;22199;-54
2022/12/10 18:54:05;;;;;;;75.90;40.00;;;;;;;2.61;100.00;98360.34;106805;1304;22221;-55
2022/12/10 18:56:33;;;;;;;;;;;;;;;2.59;100.00;98357.25;106852;1301;23185;-55
2022/12/10 18:59:00;;;;;;;66.80;38.30;;;;;;;2.55;100.00;98354.52;106743;1284;22328;-55
2022/12/10 19:01:27;;;;;;;65.80;38.40;;;;;;;2.53;100.00;98356.67;106707;1290;22118;-55
2022/12/10 19:03:55;;;;;;;64.60;35.50;;;;;;;2.53;100.00;98350.71;106828;1298;22315;-55
2022/12/10 19:06:26;;;;;;;65.50;37.40;;;;;;;2.55;100.00;98346.55;106826;1290;22208;-55
2022/12/10 19:08:53;;;;;;;68.40;38.10;;;;;;;2.56;100.00;98341.69;106839;1288;23158;-54
2022/12/10 19:11:41;;;;;;;60.70;36.40;;;;;;;2.56;100.00;98342.59;106712;1283;22408;-55
2022/12/10 19:14:08;;;;;;;68.30;38.70;;;;;;;2.55;100.00;98351.30;106788;1286;22113;-55
2022/12/10 19:16:35;;;;;;;;;;;;;;;2.54;100.00;98352.84;106850;1307;22346;-55
2022/12/10 19:19:04;;;;;;;74.20;41.30;;;;;;;2.53;100.00;98358.77;106805;1307;22329;-55
2022/12/10 19:21:32;;;;;;;88.70;47.30;;;;;;;2.52;100.00;98352.55;106861;1306;23259;-54
2022/12/10 19:23:59;;;;;;;68.00;38.00;;;;;;;2.52;100.00;98354.65;106799;1286;22134;-54
2022/12/10 19:26:33;;;;;;;;;;;;;;;2.52;100.00;98358.09;106820;1276;22370;-54
2022/12/10 19:29:01;;;;;;;58.90;33.60;;;;;;;2.49;100.00;98361.90;106761;1293;22142;-55
2022/12/10 19:31:28;;;;;;;66.80;35.60;;;;;;;2.46;100.00;98360.54;106827;1302;22605;-55
2022/12/10 19:33:55;;;;;;;;;;;;;;;2.44;100.00;98361.75;106837;1292;22374;-55
2022/12/10 19:36:23;;;;;;;83.70;43.60;;;;;;;2.42;100.00;98361.48;106735;1301;22899;-55
2022/12/10 19:38:51;;;;;;;72.00;41.80;;;;;;;2.42;100.00;98364.52;106819;1293;22132;-54
2022/12/10 19:41:18;;;;;;;69.60;39.30;;;;;;;2.42;100.00;98366.83;106821;1302;22182;-53
2022/12/10 19:43:45;;;;;;;;;;;;;;;2.43;100.00;98364.91;106782;1287;22352;-55
2022/12/10 19:46:17;;;;;;;71.30;41.10;;;;;;;2.44;100.00;98366.96;106870;1302;22192;-54
2022/12/10 19:48:44;;;;;;;63.00;35.90;;;;;;;2.41;100.00;98371.10;106860;1287;22379;-55
2022/12/10 19:51:12;;;;;;;62.00;35.20;;;;;;;2.40;100.00;98370.67;106826;1302;22183;-55
2022/12/10 19:53:39;;;;;;;;;;;;;;;2.40;100.00;98377.98;106841;1302;23269;-55
2022/12/10 19:56:14;;;;;;;55.10;31.50;;;;;;;2.40;100.00;98381.17;106759;1286;22591;-54
2022/12/10 19:58:41;;;;;;;52.00;31.30;;;;;;;2.40;100.00;98382.15;106778;1296;22277;-55
2022/12/10 20:01:07;;;;;;;60.60;35.00;;;;;;;2.41;100.00;98382.81;106826;1286;22203;-54
2022/12/10 20:03:34;;;;;;;;;;;;;;;2.40;100.00;98382.25;106858;1300;22337;-54
2022/12/10 20:06:01;;;;;;;57.60;32.80;;;;;;;2.41;100.00;98376.23;106839;1302;23936;-54
2022/12/10 20:08:31;;;;;;;63.80;34.90;;;;;;;2.40;100.00;98378.86;106773;1289;22204;-54
2022/12/10 20:10:58;;;;;;;77.90;39.90;;;;;;;2.40;100.00;98380.85;106763;1289;22873;-54
2022/12/10 20:13:25;;;;;;;86.70;45.10;;;;;;;2.40;100.00;98383.48;106774;1286;22159;-54
2022/12/10 20:15:52;;;;;;;79.50;41.60;;;;;;;2.41;100.00;98381.41;106784;1295;22121;-54
2022/12/10 20:18:19;;;;;;;81.80;45.00;;;;;;;2.42;100.00;98369.98;106848;1296;22271;-55
2022/12/10 20:20:46;;;;;;;84.70;42.80;;;;;;;2.43;100.00;98374.21;106877;1292;22303;-55
2022/12/10 20:23:13;;;;;;;77.40;41.30;;;;;;;2.46;100.00;98386.71;106860;1286;23025;-55
2022/12/10 20:25:43;;;;;;;64.70;36.10;;;;;;;2.46;100.00;98385.71;106852;1302;22145;-55
2022/12/10 20:28:14;;;;;;;56.50;31.70;;;;;;;2.49;100.00;98380.30;106822;1302;22577;-54
2022/12/10 20:30:41;;;;;;;56.50;32.70;;;;;;;2.52;100.00;98381.21;106762;1301;22222;-55
2022/12/10 20:33:08;;;;;;;63.90;36.20;;;;;;;2.54;100.00;98385.64;106836;1302;22860;-55
2022/12/10 20:35:55;;;;;;;67.60;39.70;;;;;;;2.54;100.00;98394.29;106838;1302;22132;-54
2022/12/10 20:38:21;;;;;;;;;;;;;;;2.48;100.00;98397.52;106636;1291;22381;-55
2022/12/10 20:40:48;;;;;;;65.50;36.50;;;;;;;2.44;100.00;98405.67;106864;1302;22739;-55
2022/12/10 20:43:15;;;;;;;66.20;36.70;;;;;;;2.43;100.00;98413.88;106814;1279;22119;-55
2022/12/10 20:45:42;;;;;;;70.20;37.40;;;;;;;2.43;100.00;98407.59;106788;1293;22977;-54
2022/12/10 20:48:09;;;;;;;;;;;;;;;2.41;100.00;98410.65;106838;1295;22402;-54
2022/12/10 20:50:36;;;;;;;59.20;33.90;;;;;;;2.39;100.00;98412.00;106846;1300;22309;-54
2022/12/10 20:53:03;;;;;;;59.20;33.40;;;;;;;2.39;100.00;98405.55;106878;1287;22105;-54
2022/12/10 20:55:30;;;;;;;;;;;;;;;2.39;100.00;98396.15;106805;1302;22460;-55
2022/12/10 20:57:57;;;;;;;55.70;31.70;;;;;;;2.39;100.00;98395.70;106800;1281;22940;-55
2022/12/10 21:00:23;;;;;;;;;;;;;;;2.37;100.00;98399.00;106777;1296;22395;-55
2022/12/10 21:02:50;;;;;;;51.40;29.10;;;;;;;2.39;100.00;98397.31;106826;1288;23072;-54
2022/12/10 21:05:18;;;;;;;50.10;30.20;;;;;;;2.39;100.00;98394.09;106835;1302;22196;-54
2022/12/10 21:07:45;;;;;;;49.60;31.40;;;;;;;2.37;100.00;98395.81;106830;1301;22266;-55
2022/12/10 21:10:50;;;;;;;49.00;28.50;;;;;;;2.36;100.00;98392.84;106850;1302;22137;-54
2022/12/10 21:13:03;;;;;;;48.50;29.10;;;;;;;2.37;100.00;98390.27;106780;1302;23194;-53
2022/12/10 21:15:30;;;;;;;57.10;31.20;;;;;;;2.39;100.00;98395.54;106777;1286;22240;-54
2022/12/10 21:17:56;;;;;;;48.10;31.30;;;;;;;2.38;100.00;98403.59;106836;1302;22888;-54
2022/12/10 21:20:23;;;;;;;55.20;30.40;;;;;;;2.37;100.00;98410.40;106811;1303;22122;-55
2022/12/10 21:22:55;;;;;;;47.60;30.60;;;;;;;2.38;100.00;98406.50;106803;1293;22884;-54
2022/12/10 21:25:21;;;;;;;66.90;40.30;;;;;;;2.38;100.00;98407.83;106823;1295;22119;-53
2022/12/10 21:27:48;;;;;;;61.20;35.60;;;;;;;2.36;100.00;98394.83;106804;1302;22207;-54
2022/12/10 21:30:15;;;;;;;55.40;31.80;;;;;;;2.37;100.00;98385.28;106845;1286;23067;-54
2022/12/10 21:32:45;;;;;;;;;;;;;;;2.34;100.00;98381.02;106792;1304;22394;-54
2022/12/10 21:35:12;;;;;;;55.20;31.60;;;;;;;2.37;100.00;98380.27;106822;1303;23321;-54
2022/12/10 21:37:39;;;;;;;51.90;29.60;;;;;;;2.38;100.00;98395.15;106803;1300;22167;-54
2022/12/10 21:40:07;;;;;;;56.80;33.80;;;;;;;2.38;100.00;98396.29;106772;1293;22128;-55
2022/12/10 21:45:20;;;;;;;50.40;30.70;;;;;;;2.38;100.00;98425.20;106777;1302;22136;-55
2022/12/10 21:47:47;;;;;;;55.60;30.50;;;;;;;2.39;100.00;98426.09;106819;1302;22847;-55
2022/12/10 21:50:13;;;;;;;54.60;30.10;;;;;;;2.41;100.00;98423.67;106841;1302;22376;-55
2022/12/10 21:52:42;;;;;;;;;;;;;;;2.41;100.00;98410.45;106828;1302;22341;-55
2022/12/10 21:55:09;;;;;;;48.00;27.60;;;;;;;2.41;100.00;98408.58;106789;1296;22932;-55
2022/12/10 21:57:36;;;;;;;41.60;27.00;;;;;;;2.40;100.00;98405.95;106810;1304;23169;-55
2022/12/10 22:00:04;;;;;;;;;;;;;;;2.40;100.00;98402.34;106802;1278;22463;-55
2022/12/10 22:02:38;;;;;;;48.10;27.00;;;;;;;2.39;100.00;98390.29;106823;1299;22245;-55
2022/12/10 22:05:06;;;;;;;38.20;24.40;;;;;;;2.39;100.00;98383.66;106832;1302;22160;-55
2022/12/10 22:07:35;;;;;;;48.30;28.40;;;;;;;2.40;100.00;98373.69;106725;1295;22146;-55
2022/12/10 22:10:03;;;;;;;48.00;27.10;;;;;;;2.41;100.00;98371.40;106801;1301;22857;-55
2022/12/10 22:12:30;;;;;;;44.80;27.90;;;;;;;2.42;100.00;98379.86;106808;1301;22293;-55
2022/12/10 22:14:57;;;;;;;42.10;25.20;;;;;;;2.42;100.00;98389.08;106824;1302;22164;-55
2022/12/10 22:17:24;;;;;;;;;;;;;;;2.44;100.00;98384.66;106817;1296;22460;-54
2022/12/10 22:19:52;;;;;;;34.00;20.90;;;;;;;2.46;100.00;98389.56;106805;1302;22240;-55
2022/12/10 22:22:20;;;;;;;27.00;16.10;;;;;;;2.47;100.00;98385.58;106838;1301;22385;-55
2022/12/10 22:24:46;;;;;;;32.50;20.00;;;;;;;2.49;100.00;98379.59;106805;1295;22156;-55
2022/12/10 22:27:13;;;;;;;;;;;;;;;2.51;100.00;98382.87;106826;1302;22338;-54
2022/12/10 22:29:40;;;;;;;18.00;11.90;;;;;;;2.54;100.00;98381.68;106786;1304;22365;-55
2022/12/10 22:32:07;;;;;;;18.20;10.80;;;;;;;2.56;100.00;98392.07;106780;1287;22191;-55
2022/12/10 22:34:33;;;;;;;;;;;;;;;2.58;100.00;98398.48;106810;1302;22352;-55
2022/12/10 22:37:04;;;;;;;22.90;14.20;;;;;;;2.61;100.00;98394.64;106839;1294;22143;-55
2022/12/10 22:39:31;;;;;;;21.00;14.30;;;;;;;2.63;100.00;98382.37;106832;1287;23232;-54
2022/12/10 22:41:58;;;;;;;21.30;13.90;;;;;;;2.66;100.00;98381.33;106850;1302;22272;-55
2022/12/10 22:44:25;;;;;;;21.00;14.50;;;;;;;2.68;100.00;98384.02;106795;1287;22195;-55
2022/12/10 22:46:52;;;;;;;17.10;11.40;;;;;;;2.71;100.00;98390.27;106808;1302;22277;-55
2022/12/10 22:49:19;;;;;;;28.60;15.10;;;;;;;2.72;100.00;98385.94;106586;1301;22151;-55
2022/12/10 22:51:46;;;;;;;31.90;16.10;;;;;;;2.74;100.00;98375.96;106797;1301;22302;-55
2022/12/10 22:54:13;;;;;;;20.90;12.20;;;;;;;2.76;100.00;98368.05;106820;1294;22193;-55
2022/12/10 22:56:39;;;;;;;17.50;10.90;;;;;;;2.78;100.00;98364.00;106788;1285;22110;-58
2022/12/10 22:59:06;;;;;;;17.20;10.70;;;;;;;2.81;100.00;98370.79;106925;1302;22071;-55
2022/12/10 23:01:33;;;;;;;15.70;9.30;;;;;;;2.82;100.00;98369.80;106776;1293;22232;-55
2022/12/10 23:03:59;;;;;;;12.90;8.70;;;;;;;2.83;100.00;98364.48;106814;1294;22233;-55
2022/12/10 23:06:26;;;;;;;12.60;9.00;;;;;;;2.84;100.00;98370.16;106752;1290;22214;-55
2022/12/10 23:08:53;;;;;;;12.50;8.40;;;;;;;2.82;100.00;98370.55;106836;1295;22979;-55
2022/12/10 23:11:19;;;;;;;;;;;;;;;2.81;100.00;98376.56;106829;1287;22329;-54
2022/12/10 23:13:46;;;;;;;10.70;8.20;;;;;;;2.80;100.00;98375.92;106777;1302;22265;-55
2022/12/10 23:16:14;;;;;;;14.80;9.80;;;;;;;2.80;100.00;98380.07;106768;1294;22152;-55
2022/12/10 23:18:42;;;;;;;13.40;8.40;;;;;;;2.80;100.00;98374.11;106806;1302;22195;-55
2022/12/10 23:21:13;;;;;;;14.00;9.00;;;;;;;2.80;100.00;98369.97;106832;1301;22193;-55
2022/12/10 23:23:40;;;;;;;10.80;8.20;;;;;;;2.80;100.00;98359.79;106841;1293;22122;-54
2022/12/10 23:26:07;;;;;;;10.70;8.50;;;;;;;2.78;100.00;98353.88;106836;1294;22125;-55
2022/12/10 23:28:33;;;;;;;12.00;8.40;;;;;;;2.76;100.00;98344.48;106829;1293;22227;-54
2022/12/10 23:31:00;;;;;;;14.10;9.10;;;;;;;2.73;100.00;98340.35;106774;1302;22404;-55
2022/12/10 23:33:27;;;;;;;15.20;10.40;;;;;;;2.71;100.00;98335.39;106792;1301;23261;-54
2022/12/10 23:35:53;;;;;;;17.50;11.30;;;;;;;2.68;100.00;98335.65;106817;1301;23021;-55
2022/12/10 23:38:20;;;;;;;16.40;11.20;;;;;;;2.66;100.00;98341.15;106813;1302;23422;-55
2022/12/10 23:40:47;;;;;;;;;;;;;;;2.65;100.00;98346.17;106852;1292;22406;-55
2022/12/10 23:43:13;;;;;;;14.80;10.40;;;;;;;2.64;100.00;98352.61;106799;1286;22161;-55
2022/12/10 23:45:41;;;;;;;18.00;12.00;;;;;;;2.63;100.00;98363.13;106764;1287;22153;-55
2022/12/10 23:48:08;;;;;;;17.50;12.00;;;;;;;2.62;100.00;98369.11;106766;1293;22311;-55
2022/12/10 23:50:34;;;;;;;;;;;;;;;2.61;100.00;98362.75;106829;1301;23208;-54
2022/12/10 23:53:02;;;;;;;19.90;12.70;;;;;;;2.61;100.00;98362.91;106801;1303;22206;-54
2022/12/10 23:55:28;;;;;;;19.60;13.40;;;;;;;2.60;100.00;98359.23;106823;1294;22152;-54
2022/12/10 23:57:55;;;;;;;22.20;13.30;;;;;;;2.61;100.00;98351.30;106805;1302;22234;-55
